sensor_id;sensor_type;location;lat;lon;timestamp;P1;durP1;ratioP1;P2;durP2;ratioP2
22965;SDS011;11649;48.090;9.754;2023-05-07T00:02:07;8.48;;;4.50;;
22965;SDS011;11649;48.090;9.754;2023-05-07T00:04:34;5.20;;;4.40;;
22965;SDS011;11649;48.090;9.754;2023-05-07T00:07:04;7.53;;;4.60;;
22965;SDS011;11649;48.090;9.754;2023-05-07T00:09:30;5.00;;;4.50;;
22965;SDS011;11649;48.090;9.754;2023-05-07T00:11:57;6.93;;;4.70;;
22965;SDS011;11649;48.090;9.754;2023-05-07T00:14:24;7.07;;;5.07;;
22965;SDS011;11649;48.090;9.754;2023-05-07T00:16:51;7.15;;;4.60;;
22965;SDS011;11649;48.090;9.754;2023-05-07T00:19:18;6.20;;;4.82;;
22965;SDS011;11649;48.090;9.754;2023-05-07T00:21:44;5.72;;;4.53;;
22965;SDS011;11649;48.090;9.754;2023-05-07T00:24:11;8.35;;;4.68;;
22965;SDS011;11649;48.090;9.754;2023-05-07T00:26:38;5.40;;;4.38;;
22965;SDS011;11649;48.090;9.754;2023-05-07T00:29:04;5.53;;;4.30;;
22965;SDS011;11649;48.090;9.754;2023-05-07T00:31:31;5.72;;;4.40;;
22965;SDS011;11649;48.090;9.754;2023-05-07T00:33:58;6.57;;;4.60;;
22965;SDS011;11649;48.090;9.754;2023-05-07T00:36:25;5.75;;;4.90;;
22965;SDS011;11649;48.090;9.754;2023-05-07T00:38:53;5.85;;;4.65;;
22965;SDS011;11649;48.090;9.754;2023-05-07T00:41:21;5.10;;;4.43;;
22965;SDS011;11649;48.090;9.754;2023-05-07T00:43:48;5.78;;;5.05;;
22965;SDS011;11649;48.090;9.754;2023-05-07T00:46:18;5.88;;;5.30;;
22965;SDS011;11649;48.090;9.754;2023-05-07T00:48:47;7.28;;;4.97;;
22965;SDS011;11649;48.090;9.754;2023-05-07T00:51:15;8.30;;;4.90;;
22965;SDS011;11649;48.090;9.754;2023-05-07T00:53:42;5.25;;;4.70;;
22965;SDS011;11649;48.090;9.754;2023-05-07T00:56:09;5.10;;;4.30;;
22965;SDS011;11649;48.090;9.754;2023-05-07T00:58:36;6.32;;;4.25;;
22965;SDS011;11649;48.090;9.754;2023-05-07T01:01:03;6.05;;;4.40;;
22965;SDS011;11649;48.090;9.754;2023-05-07T01:03:30;5.30;;;4.53;;
22965;SDS011;11649;48.090;9.754;2023-05-07T01:05:57;6.15;;;4.65;;
22965;SDS011;11649;48.090;9.754;2023-05-07T01:08:26;6.13;;;4.93;;
22965;SDS011;11649;48.090;9.754;2023-05-07T01:10:56;5.05;;;4.60;;
22965;SDS011;11649;48.090;9.754;2023-05-07T01:13:23;5.03;;;4.38;;
22965;SDS011;11649;48.090;9.754;2023-05-07T01:15:51;5.90;;;4.72;;
22965;SDS011;11649;48.090;9.754;2023-05-07T01:18:18;6.07;;;4.70;;
22965;SDS011;11649;48.090;9.754;2023-05-07T01:20:45;7.22;;;5.20;;
22965;SDS011;11649;48.090;9.754;2023-05-07T01:23:11;6.15;;;5.55;;
22965;SDS011;11649;48.090;9.754;2023-05-07T01:25:38;7.20;;;5.07;;
22965;SDS011;11649;48.090;9.754;2023-05-07T01:28:05;6.13;;;5.53;;
22965;SDS011;11649;48.090;9.754;2023-05-07T01:30:32;7.68;;;5.80;;
22965;SDS011;11649;48.090;9.754;2023-05-07T01:35:32;7.18;;;5.28;;
22965;SDS011;11649;48.090;9.754;2023-05-07T01:38:02;6.20;;;4.75;;
22965;SDS011;11649;48.090;9.754;2023-05-07T01:40:30;7.38;;;5.20;;
22965;SDS011;11649;48.090;9.754;2023-05-07T01:42:57;7.93;;;5.60;;
22965;SDS011;11649;48.090;9.754;2023-05-07T01:45:24;10.43;;;6.00;;
22965;SDS011;11649;48.090;9.754;2023-05-07T01:47:51;7.50;;;6.18;;
22965;SDS011;11649;48.090;9.754;2023-05-07T01:50:19;6.45;;;5.70;;
22965;SDS011;11649;48.090;9.754;2023-05-07T01:52:49;9.43;;;6.13;;
22965;SDS011;11649;48.090;9.754;2023-05-07T01:55:17;8.88;;;6.82;;
22965;SDS011;11649;48.090;9.754;2023-05-07T01:57:44;6.88;;;6.10;;
22965;SDS011;11649;48.090;9.754;2023-05-07T02:00:11;7.72;;;5.93;;
22965;SDS011;11649;48.090;9.754;2023-05-07T02:02:38;6.93;;;5.60;;
22965;SDS011;11649;48.090;9.754;2023-05-07T02:05:05;9.20;;;6.90;;
22965;SDS011;11649;48.090;9.754;2023-05-07T02:07:32;8.00;;;5.93;;
22965;SDS011;11649;48.090;9.754;2023-05-07T02:09:59;8.88;;;6.07;;
22965;SDS011;11649;48.090;9.754;2023-05-07T02:12:26;6.57;;;5.78;;
22965;SDS011;11649;48.090;9.754;2023-05-07T02:14:53;6.55;;;5.63;;
22965;SDS011;11649;48.090;9.754;2023-05-07T02:17:19;6.45;;;5.85;;
22965;SDS011;11649;48.090;9.754;2023-05-07T02:19:46;6.85;;;6.15;;
22965;SDS011;11649;48.090;9.754;2023-05-07T02:22:13;6.95;;;6.25;;
22965;SDS011;11649;48.090;9.754;2023-05-07T02:24:39;8.30;;;6.22;;
22965;SDS011;11649;48.090;9.754;2023-05-07T02:27:06;9.50;;;6.95;;
22965;SDS011;11649;48.090;9.754;2023-05-07T02:29:33;10.13;;;7.10;;
22965;SDS011;11649;48.090;9.754;2023-05-07T02:32:00;9.40;;;7.20;;
22965;SDS011;11649;48.090;9.754;2023-05-07T02:34:27;7.35;;;6.53;;
22965;SDS011;11649;48.090;9.754;2023-05-07T02:36:53;7.55;;;6.78;;
22965;SDS011;11649;48.090;9.754;2023-05-07T02:39:22;7.85;;;6.32;;
22965;SDS011;11649;48.090;9.754;2023-05-07T02:41:48;9.68;;;6.40;;
22965;SDS011;11649;48.090;9.754;2023-05-07T02:44:15;8.63;;;6.32;;
22965;SDS011;11649;48.090;9.754;2023-05-07T02:46:42;16.67;;;6.32;;
22965;SDS011;11649;48.090;9.754;2023-05-07T02:49:08;7.90;;;6.15;;
22965;SDS011;11649;48.090;9.754;2023-05-07T02:51:35;7.85;;;6.00;;
22965;SDS011;11649;48.090;9.754;2023-05-07T02:54:02;6.72;;;5.85;;
22965;SDS011;11649;48.090;9.754;2023-05-07T02:56:28;7.18;;;6.47;;
22965;SDS011;11649;48.090;9.754;2023-05-07T02:58:56;6.90;;;6.07;;
22965;SDS011;11649;48.090;9.754;2023-05-07T03:01:23;7.05;;;6.35;;
22965;SDS011;11649;48.090;9.754;2023-05-07T03:03:49;9.88;;;6.72;;
22965;SDS011;11649;48.090;9.754;2023-05-07T03:06:17;8.13;;;6.72;;
22965;SDS011;11649;48.090;9.754;2023-05-07T03:08:43;7.43;;;6.53;;
22965;SDS011;11649;48.090;9.754;2023-05-07T03:11:10;7.20;;;6.50;;
22965;SDS011;11649;48.090;9.754;2023-05-07T03:13:37;8.75;;;6.85;;
22965;SDS011;11649;48.090;9.754;2023-05-07T03:16:04;10.52;;;6.28;;
22965;SDS011;11649;48.090;9.754;2023-05-07T03:18:31;7.38;;;6.68;;
22965;SDS011;11649;48.090;9.754;2023-05-07T03:20:58;6.80;;;6.10;;
22965;SDS011;11649;48.090;9.754;2023-05-07T03:23:25;7.30;;;6.50;;
22965;SDS011;11649;48.090;9.754;2023-05-07T03:25:51;7.40;;;6.60;;
22965;SDS011;11649;48.090;9.754;2023-05-07T03:28:18;8.15;;;6.75;;
22965;SDS011;11649;48.090;9.754;2023-05-07T03:30:47;9.68;;;6.13;;
22965;SDS011;11649;48.090;9.754;2023-05-07T03:33:14;7.22;;;6.20;;
22965;SDS011;11649;48.090;9.754;2023-05-07T03:35:40;8.88;;;6.05;;
22965;SDS011;11649;48.090;9.754;2023-05-07T03:38:07;7.25;;;5.97;;
22965;SDS011;11649;48.090;9.754;2023-05-07T03:40:34;6.93;;;6.03;;
22965;SDS011;11649;48.090;9.754;2023-05-07T03:43:01;7.00;;;6.30;;
22965;SDS011;11649;48.090;9.754;2023-05-07T03:45:27;7.97;;;6.90;;
22965;SDS011;11649;48.090;9.754;2023-05-07T03:47:54;6.43;;;5.70;;
22965;SDS011;11649;48.090;9.754;2023-05-07T03:50:21;8.45;;;6.53;;
22965;SDS011;11649;48.090;9.754;2023-05-07T03:52:48;7.35;;;6.60;;
22965;SDS011;11649;48.090;9.754;2023-05-07T03:55:14;6.88;;;6.18;;
22965;SDS011;11649;48.090;9.754;2023-05-07T03:57:41;8.02;;;6.72;;
22965;SDS011;11649;48.090;9.754;2023-05-07T04:00:08;8.10;;;6.53;;
22965;SDS011;11649;48.090;9.754;2023-05-07T04:02:36;7.60;;;6.07;;
22965;SDS011;11649;48.090;9.754;2023-05-07T04:05:03;7.00;;;6.30;;
22965;SDS011;11649;48.090;9.754;2023-05-07T04:07:29;7.00;;;6.30;;
22965;SDS011;11649;48.090;9.754;2023-05-07T04:09:56;7.20;;;6.32;;
22965;SDS011;11649;48.090;9.754;2023-05-07T04:12:23;8.98;;;6.72;;
22965;SDS011;11649;48.090;9.754;2023-05-07T04:14:50;8.77;;;6.47;;
22965;SDS011;11649;48.090;9.754;2023-05-07T04:17:17;6.75;;;6.05;;
22965;SDS011;11649;48.090;9.754;2023-05-07T04:19:43;8.88;;;6.35;;
22965;SDS011;11649;48.090;9.754;2023-05-07T04:22:12;6.97;;;6.22;;
22965;SDS011;11649;48.090;9.754;2023-05-07T04:24:38;8.55;;;6.50;;
22965;SDS011;11649;48.090;9.754;2023-05-07T04:27:05;8.35;;;6.78;;
22965;SDS011;11649;48.090;9.754;2023-05-07T04:29:32;8.23;;;6.28;;
22965;SDS011;11649;48.090;9.754;2023-05-07T04:31:59;9.18;;;6.80;;
22965;SDS011;11649;48.090;9.754;2023-05-07T04:34:26;7.47;;;6.20;;
22965;SDS011;11649;48.090;9.754;2023-05-07T04:36:52;6.57;;;5.80;;
22965;SDS011;11649;48.090;9.754;2023-05-07T04:39:19;7.30;;;6.25;;
22965;SDS011;11649;48.090;9.754;2023-05-07T04:41:46;7.45;;;6.47;;
22965;SDS011;11649;48.090;9.754;2023-05-07T04:44:13;8.15;;;6.53;;
22965;SDS011;11649;48.090;9.754;2023-05-07T04:46:39;7.18;;;6.40;;
22965;SDS011;11649;48.090;9.754;2023-05-07T04:49:06;7.40;;;6.60;;
22965;SDS011;11649;48.090;9.754;2023-05-07T04:51:33;8.57;;;6.88;;
22965;SDS011;11649;48.090;9.754;2023-05-07T04:54:00;7.60;;;6.80;;
22965;SDS011;11649;48.090;9.754;2023-05-07T04:56:27;10.10;;;6.35;;
22965;SDS011;11649;48.090;9.754;2023-05-07T04:58:56;9.63;;;7.00;;
22965;SDS011;11649;48.090;9.754;2023-05-07T05:01:22;7.95;;;7.15;;
22965;SDS011;11649;48.090;9.754;2023-05-07T05:03:49;13.13;;;7.15;;
22965;SDS011;11649;48.090;9.754;2023-05-07T05:06:16;8.10;;;7.00;;
22965;SDS011;11649;48.090;9.754;2023-05-07T05:08:43;9.57;;;7.47;;
22965;SDS011;11649;48.090;9.754;2023-05-07T05:11:10;10.25;;;7.95;;
22965;SDS011;11649;48.090;9.754;2023-05-07T05:13:37;8.98;;;7.85;;
22965;SDS011;11649;48.090;9.754;2023-05-07T05:16:04;8.18;;;7.38;;
22965;SDS011;11649;48.090;9.754;2023-05-07T05:18:31;8.35;;;7.40;;
22965;SDS011;11649;48.090;9.754;2023-05-07T05:20:58;8.07;;;6.80;;
22965;SDS011;11649;48.090;9.754;2023-05-07T05:23:25;8.80;;;7.20;;
22965;SDS011;11649;48.090;9.754;2023-05-07T05:25:56;9.00;;;7.20;;
22965;SDS011;11649;48.090;9.754;2023-05-07T05:28:24;8.02;;;7.07;;
22965;SDS011;11649;48.090;9.754;2023-05-07T05:30:51;8.73;;;7.10;;
22965;SDS011;11649;48.090;9.754;2023-05-07T05:33:17;7.25;;;6.55;;
22965;SDS011;11649;48.090;9.754;2023-05-07T05:35:44;7.90;;;6.88;;
22965;SDS011;11649;48.090;9.754;2023-05-07T05:38:11;7.75;;;6.78;;
22965;SDS011;11649;48.090;9.754;2023-05-07T05:40:38;9.63;;;8.18;;
22965;SDS011;11649;48.090;9.754;2023-05-07T05:43:05;8.35;;;7.55;;
22965;SDS011;11649;48.090;9.754;2023-05-07T05:45:32;9.07;;;7.75;;
22965;SDS011;11649;48.090;9.754;2023-05-07T05:47:58;10.18;;;7.78;;
22965;SDS011;11649;48.090;9.754;2023-05-07T05:50:26;9.25;;;7.93;;
22965;SDS011;11649;48.090;9.754;2023-05-07T05:52:52;10.70;;;8.30;;
22965;SDS011;11649;48.090;9.754;2023-05-07T05:55:19;9.48;;;8.55;;
22965;SDS011;11649;48.090;9.754;2023-05-07T05:57:46;11.45;;;8.95;;
22965;SDS011;11649;48.090;9.754;2023-05-07T06:00:13;8.07;;;7.35;;
22965;SDS011;11649;48.090;9.754;2023-05-07T06:02:40;10.30;;;7.93;;
22965;SDS011;11649;48.090;9.754;2023-05-07T06:05:09;10.05;;;8.10;;
22965;SDS011;11649;48.090;9.754;2023-05-07T06:07:36;8.95;;;8.02;;
22965;SDS011;11649;48.090;9.754;2023-05-07T06:10:02;8.50;;;7.68;;
22965;SDS011;11649;48.090;9.754;2023-05-07T06:12:29;8.85;;;8.02;;
22965;SDS011;11649;48.090;9.754;2023-05-07T06:14:56;8.50;;;7.70;;
22965;SDS011;11649;48.090;9.754;2023-05-07T06:17:23;10.23;;;8.10;;
22965;SDS011;11649;48.090;9.754;2023-05-07T06:19:50;9.50;;;7.38;;
22965;SDS011;11649;48.090;9.754;2023-05-07T06:22:18;9.40;;;7.60;;
22965;SDS011;11649;48.090;9.754;2023-05-07T06:24:44;8.32;;;7.43;;
22965;SDS011;11649;48.090;9.754;2023-05-07T06:27:12;8.70;;;7.70;;
22965;SDS011;11649;48.090;9.754;2023-05-07T06:29:39;10.43;;;7.80;;
22965;SDS011;11649;48.090;9.754;2023-05-07T06:32:09;9.85;;;7.60;;
22965;SDS011;11649;48.090;9.754;2023-05-07T06:34:37;9.52;;;8.57;;
22965;SDS011;11649;48.090;9.754;2023-05-07T06:37:04;8.38;;;7.57;;
22965;SDS011;11649;48.090;9.754;2023-05-07T06:39:32;9.32;;;8.32;;
22965;SDS011;11649;48.090;9.754;2023-05-07T06:42:00;8.77;;;7.88;;
22965;SDS011;11649;48.090;9.754;2023-05-07T06:44:27;8.45;;;7.57;;
22965;SDS011;11649;48.090;9.754;2023-05-07T06:46:54;7.88;;;7.07;;
22965;SDS011;11649;48.090;9.754;2023-05-07T06:49:21;10.82;;;7.18;;
22965;SDS011;11649;48.090;9.754;2023-05-07T06:51:48;10.10;;;8.32;;
22965;SDS011;11649;48.090;9.754;2023-05-07T06:54:15;7.40;;;6.55;;
22965;SDS011;11649;48.090;9.754;2023-05-07T06:56:41;7.40;;;6.57;;
22965;SDS011;11649;48.090;9.754;2023-05-07T06:59:08;9.32;;;7.55;;
22965;SDS011;11649;48.090;9.754;2023-05-07T07:01:35;9.77;;;7.63;;
22965;SDS011;11649;48.090;9.754;2023-05-07T07:04:02;9.68;;;6.80;;
22965;SDS011;11649;48.090;9.754;2023-05-07T07:06:29;7.35;;;6.55;;
22965;SDS011;11649;48.090;9.754;2023-05-07T07:08:58;8.18;;;6.80;;
22965;SDS011;11649;48.090;9.754;2023-05-07T07:11:26;7.30;;;6.10;;
22965;SDS011;11649;48.090;9.754;2023-05-07T07:13:52;5.57;;;5.05;;
22965;SDS011;11649;48.090;9.754;2023-05-07T07:16:21;5.30;;;4.80;;
22965;SDS011;11649;48.090;9.754;2023-05-07T07:18:48;4.75;;;4.25;;
22965;SDS011;11649;48.090;9.754;2023-05-07T07:21:15;6.22;;;4.18;;
22965;SDS011;11649;48.090;9.754;2023-05-07T07:23:41;4.28;;;3.88;;
22965;SDS011;11649;48.090;9.754;2023-05-07T07:26:08;4.55;;;4.15;;
22965;SDS011;11649;48.090;9.754;2023-05-07T07:28:41;6.65;;;5.50;;
22965;SDS011;11649;48.090;9.754;2023-05-07T07:31:10;5.88;;;4.90;;
22965;SDS011;11649;48.090;9.754;2023-05-07T07:33:38;7.15;;;4.93;;
22965;SDS011;11649;48.090;9.754;2023-05-07T07:36:05;6.55;;;4.40;;
22965;SDS011;11649;48.090;9.754;2023-05-07T07:38:33;4.75;;;4.30;;
22965;SDS011;11649;48.090;9.754;2023-05-07T07:41:00;4.55;;;4.15;;
22965;SDS011;11649;48.090;9.754;2023-05-07T07:43:28;6.15;;;5.25;;
22965;SDS011;11649;48.090;9.754;2023-05-07T07:45:55;6.97;;;4.40;;
22965;SDS011;11649;48.090;9.754;2023-05-07T07:48:21;5.05;;;4.55;;
22965;SDS011;11649;48.090;9.754;2023-05-07T07:50:49;5.00;;;4.50;;
22965;SDS011;11649;48.090;9.754;2023-05-07T07:53:19;4.90;;;4.40;;
22965;SDS011;11649;48.090;9.754;2023-05-07T07:55:45;5.80;;;5.20;;
22965;SDS011;11649;48.090;9.754;2023-05-07T07:58:12;5.25;;;4.65;;
22965;SDS011;11649;48.090;9.754;2023-05-07T08:00:39;4.95;;;4.45;;
22965;SDS011;11649;48.090;9.754;2023-05-07T08:03:08;5.13;;;4.60;;
22965;SDS011;11649;48.090;9.754;2023-05-07T08:05:36;5.60;;;4.60;;
22965;SDS011;11649;48.090;9.754;2023-05-07T08:08:04;5.35;;;4.30;;
22965;SDS011;11649;48.090;9.754;2023-05-07T08:10:32;5.88;;;4.75;;
22965;SDS011;11649;48.090;9.754;2023-05-07T08:13:01;4.80;;;4.40;;
22965;SDS011;11649;48.090;9.754;2023-05-07T08:15:30;5.50;;;3.88;;
22965;SDS011;11649;48.090;9.754;2023-05-07T08:17:57;5.05;;;4.15;;
22965;SDS011;11649;48.090;9.754;2023-05-07T08:20:26;6.47;;;3.80;;
22965;SDS011;11649;48.090;9.754;2023-05-07T08:22:53;4.50;;;4.10;;
22965;SDS011;11649;48.090;9.754;2023-05-07T08:25:21;6.55;;;4.30;;
22965;SDS011;11649;48.090;9.754;2023-05-07T08:27:48;8.80;;;4.97;;
22965;SDS011;11649;48.090;9.754;2023-05-07T08:30:14;6.43;;;4.35;;
22965;SDS011;11649;48.090;9.754;2023-05-07T08:32:41;5.97;;;3.92;;
22965;SDS011;11649;48.090;9.754;2023-05-07T08:35:08;6.63;;;3.70;;
22965;SDS011;11649;48.090;9.754;2023-05-07T08:37:35;4.80;;;4.32;;
22965;SDS011;11649;48.090;9.754;2023-05-07T08:40:02;5.57;;;4.00;;
22965;SDS011;11649;48.090;9.754;2023-05-07T08:42:34;6.28;;;4.88;;
22965;SDS011;11649;48.090;9.754;2023-05-07T08:45:07;4.68;;;4.15;;
22965;SDS011;11649;48.090;9.754;2023-05-07T08:47:43;4.80;;;4.13;;
22965;SDS011;11649;48.090;9.754;2023-05-07T08:50:12;4.45;;;4.05;;
22965;SDS011;11649;48.090;9.754;2023-05-07T08:52:40;4.43;;;3.90;;
22965;SDS011;11649;48.090;9.754;2023-05-07T08:55:07;4.68;;;3.88;;
22965;SDS011;11649;48.090;9.754;2023-05-07T08:57:35;4.60;;;4.10;;
22965;SDS011;11649;48.090;9.754;2023-05-07T09:00:02;6.75;;;5.30;;
22965;SDS011;11649;48.090;9.754;2023-05-07T09:02:30;5.47;;;4.95;;
22965;SDS011;11649;48.090;9.754;2023-05-07T09:04:57;8.32;;;5.03;;
22965;SDS011;11649;48.090;9.754;2023-05-07T09:07:24;7.90;;;5.97;;
22965;SDS011;11649;48.090;9.754;2023-05-07T09:09:52;6.32;;;4.97;;
22965;SDS011;11649;48.090;9.754;2023-05-07T09:12:21;6.63;;;5.93;;
22965;SDS011;11649;48.090;9.754;2023-05-07T09:14:48;7.00;;;5.20;;
22965;SDS011;11649;48.090;9.754;2023-05-07T09:17:16;5.65;;;4.93;;
22965;SDS011;11649;48.090;9.754;2023-05-07T09:19:44;5.20;;;4.60;;
22965;SDS011;11649;48.090;9.754;2023-05-07T09:22:11;5.10;;;4.57;;
22965;SDS011;11649;48.090;9.754;2023-05-07T09:24:38;6.75;;;5.82;;
22965;SDS011;11649;48.090;9.754;2023-05-07T09:27:06;8.80;;;5.38;;
22965;SDS011;11649;48.090;9.754;2023-05-07T09:29:34;5.10;;;4.57;;
22965;SDS011;11649;48.090;9.754;2023-05-07T09:32:02;6.75;;;5.82;;
22965;SDS011;11649;48.090;9.754;2023-05-07T09:34:32;5.85;;;5.05;;
22965;SDS011;11649;48.090;9.754;2023-05-07T09:37:00;7.30;;;5.80;;
22965;SDS011;11649;48.090;9.754;2023-05-07T09:39:38;7.35;;;4.90;;
22965;SDS011;11649;48.090;9.754;2023-05-07T09:42:08;4.75;;;4.20;;
22965;SDS011;11649;48.090;9.754;2023-05-07T09:44:36;4.55;;;4.15;;
22965;SDS011;11649;48.090;9.754;2023-05-07T09:47:06;4.90;;;4.40;;
22965;SDS011;11649;48.090;9.754;2023-05-07T09:49:35;4.10;;;3.70;;
22965;SDS011;11649;48.090;9.754;2023-05-07T09:52:07;5.18;;;3.58;;
22965;SDS011;11649;48.090;9.754;2023-05-07T09:54:36;3.80;;;3.40;;
22965;SDS011;11649;48.090;9.754;2023-05-07T09:57:07;4.32;;;3.15;;
22965;SDS011;11649;48.090;9.754;2023-05-07T09:59:35;4.40;;;3.55;;
22965;SDS011;11649;48.090;9.754;2023-05-07T10:02:04;3.80;;;3.40;;
22965;SDS011;11649;48.090;9.754;2023-05-07T10:04:32;3.78;;;3.05;;
22965;SDS011;11649;48.090;9.754;2023-05-07T10:06:59;3.88;;;3.13;;
22965;SDS011;11649;48.090;9.754;2023-05-07T10:09:27;6.00;;;3.40;;
22965;SDS011;11649;48.090;9.754;2023-05-07T10:11:54;4.63;;;3.70;;
22965;SDS011;11649;48.090;9.754;2023-05-07T10:14:22;4.03;;;3.38;;
22965;SDS011;11649;48.090;9.754;2023-05-07T10:16:49;4.68;;;3.75;;
22965;SDS011;11649;48.090;9.754;2023-05-07T10:19:17;3.50;;;3.20;;
22965;SDS011;11649;48.090;9.754;2023-05-07T10:21:51;5.05;;;3.38;;
22965;SDS011;11649;48.090;9.754;2023-05-07T10:24:26;5.47;;;3.50;;
22965;SDS011;11649;48.090;9.754;2023-05-07T10:27:00;4.55;;;3.00;;
22965;SDS011;11649;48.090;9.754;2023-05-07T10:29:33;6.47;;;3.40;;
22965;SDS011;11649;48.090;9.754;2023-05-07T10:34:52;7.15;;;3.58;;
22965;SDS011;11649;48.090;9.754;2023-05-07T10:37:21;4.30;;;3.15;;
22965;SDS011;11649;48.090;9.754;2023-05-07T10:39:49;4.80;;;2.80;;
22965;SDS011;11649;48.090;9.754;2023-05-07T10:42:16;4.35;;;2.70;;
22965;SDS011;11649;48.090;9.754;2023-05-07T10:44:43;3.67;;;2.60;;
22965;SDS011;11649;48.090;9.754;2023-05-07T10:47:11;2.80;;;2.50;;
22965;SDS011;11649;48.090;9.754;2023-05-07T10:54:43;3.58;;;2.97;;
22965;SDS011;11649;48.090;9.754;2023-05-07T10:59:59;3.72;;;3.30;;
22965;SDS011;11649;48.090;9.754;2023-05-07T11:05:28;4.00;;;3.00;;
22965;SDS011;11649;48.090;9.754;2023-05-07T11:08:03;4.57;;;2.90;;
22965;SDS011;11649;48.090;9.754;2023-05-07T11:18:52;3.03;;;2.43;;
22965;SDS011;11649;48.090;9.754;2023-05-07T11:24:02;4.22;;;3.10;;
22965;SDS011;11649;48.090;9.754;2023-05-07T11:26:30;2.92;;;2.55;;
22965;SDS011;11649;48.090;9.754;2023-05-07T11:29:17;3.65;;;2.50;;
22965;SDS011;11649;48.090;9.754;2023-05-07T11:31:52;5.13;;;2.50;;
22965;SDS011;11649;48.090;9.754;2023-05-07T11:34:20;3.53;;;2.80;;
22965;SDS011;11649;48.090;9.754;2023-05-07T11:36:51;4.45;;;2.85;;
22965;SDS011;11649;48.090;9.754;2023-05-07T11:39:25;3.45;;;3.15;;
22965;SDS011;11649;48.090;9.754;2023-05-07T11:41:54;4.60;;;3.08;;
22965;SDS011;11649;48.090;9.754;2023-05-07T11:44:21;2.78;;;2.50;;
22965;SDS011;11649;48.090;9.754;2023-05-07T11:46:48;3.17;;;2.67;;
22965;SDS011;11649;48.090;9.754;2023-05-07T11:49:15;4.13;;;3.08;;
22965;SDS011;11649;48.090;9.754;2023-05-07T11:51:42;2.53;;;2.20;;
22965;SDS011;11649;48.090;9.754;2023-05-07T11:54:11;3.20;;;2.60;;
22965;SDS011;11649;48.090;9.754;2023-05-07T11:56:41;3.95;;;2.95;;
22965;SDS011;11649;48.090;9.754;2023-05-07T11:59:07;3.17;;;2.60;;
22965;SDS011;11649;48.090;9.754;2023-05-07T12:01:35;3.03;;;2.20;;
22965;SDS011;11649;48.090;9.754;2023-05-07T12:04:03;4.13;;;2.38;;
22965;SDS011;11649;48.090;9.754;2023-05-07T12:06:35;2.53;;;2.28;;
22965;SDS011;11649;48.090;9.754;2023-05-07T12:09:03;3.65;;;2.72;;
22965;SDS011;11649;48.090;9.754;2023-05-07T12:11:33;5.65;;;2.67;;
22965;SDS011;11649;48.090;9.754;2023-05-07T12:14:00;2.83;;;2.38;;
22965;SDS011;11649;48.090;9.754;2023-05-07T12:16:27;5.38;;;2.60;;
22965;SDS011;11649;48.090;9.754;2023-05-07T12:18:54;3.20;;;2.30;;
22965;SDS011;11649;48.090;9.754;2023-05-07T12:21:21;2.50;;;2.30;;
22965;SDS011;11649;48.090;9.754;2023-05-07T12:23:49;4.22;;;2.78;;
22965;SDS011;11649;48.090;9.754;2023-05-07T12:26:16;2.50;;;2.00;;
22965;SDS011;11649;48.090;9.754;2023-05-07T12:28:45;4.20;;;2.40;;
22965;SDS011;11649;48.090;9.754;2023-05-07T12:31:13;2.03;;;1.83;;
22965;SDS011;11649;48.090;9.754;2023-05-07T12:33:41;2.72;;;2.42;;
22965;SDS011;11649;48.090;9.754;2023-05-07T12:36:08;2.05;;;1.85;;
22965;SDS011;11649;48.090;9.754;2023-05-07T12:38:36;3.70;;;2.35;;
22965;SDS011;11649;48.090;9.754;2023-05-07T12:41:07;2.90;;;1.90;;
22965;SDS011;11649;48.090;9.754;2023-05-07T12:43:36;1.70;;;1.60;;
22965;SDS011;11649;48.090;9.754;2023-05-07T12:46:04;1.98;;;1.63;;
22965;SDS011;11649;48.090;9.754;2023-05-07T12:48:32;4.78;;;2.10;;
22965;SDS011;11649;48.090;9.754;2023-05-07T12:50:59;2.42;;;2.13;;
22965;SDS011;11649;48.090;9.754;2023-05-07T12:53:28;2.30;;;1.83;;
22965;SDS011;11649;48.090;9.754;2023-05-07T12:55:56;2.67;;;1.77;;
22965;SDS011;11649;48.090;9.754;2023-05-07T12:58:28;2.10;;;1.90;;
22965;SDS011;11649;48.090;9.754;2023-05-07T13:00:57;2.72;;;1.67;;
22965;SDS011;11649;48.090;9.754;2023-05-07T13:03:36;3.38;;;1.88;;
22965;SDS011;11649;48.090;9.754;2023-05-07T13:08:33;3.72;;;2.40;;
22965;SDS011;11649;48.090;9.754;2023-05-07T13:11:01;1.92;;;1.58;;
22965;SDS011;11649;48.090;9.754;2023-05-07T13:13:33;3.33;;;2.30;;
22965;SDS011;11649;48.090;9.754;2023-05-07T13:16:01;4.88;;;2.50;;
22965;SDS011;11649;48.090;9.754;2023-05-07T13:18:29;3.83;;;2.03;;
22965;SDS011;11649;48.090;9.754;2023-05-07T13:20:57;3.38;;;1.98;;
22965;SDS011;11649;48.090;9.754;2023-05-07T13:23:24;1.60;;;1.50;;
22965;SDS011;11649;48.090;9.754;2023-05-07T13:25:51;2.38;;;1.90;;
22965;SDS011;11649;48.090;9.754;2023-05-07T13:28:20;2.63;;;1.85;;
22965;SDS011;11649;48.090;9.754;2023-05-07T13:30:47;2.58;;;1.98;;
22965;SDS011;11649;48.090;9.754;2023-05-07T13:33:14;2.20;;;2.00;;
22965;SDS011;11649;48.090;9.754;2023-05-07T13:35:42;3.53;;;2.28;;
22965;SDS011;11649;48.090;9.754;2023-05-07T13:38:08;2.72;;;2.20;;
22965;SDS011;11649;48.090;9.754;2023-05-07T13:40:35;4.05;;;2.00;;
22965;SDS011;11649;48.090;9.754;2023-05-07T13:43:02;1.95;;;1.63;;
22965;SDS011;11649;48.090;9.754;2023-05-07T13:45:31;2.83;;;2.40;;
22965;SDS011;11649;48.090;9.754;2023-05-07T13:47:58;3.20;;;1.75;;
22965;SDS011;11649;48.090;9.754;2023-05-07T13:50:25;2.10;;;1.90;;
22965;SDS011;11649;48.090;9.754;2023-05-07T13:52:56;5.05;;;2.47;;
22965;SDS011;11649;48.090;9.754;2023-05-07T13:55:23;2.35;;;1.80;;
22965;SDS011;11649;48.090;9.754;2023-05-07T13:57:57;2.10;;;1.83;;
22965;SDS011;11649;48.090;9.754;2023-05-07T14:00:25;2.88;;;1.90;;
22965;SDS011;11649;48.090;9.754;2023-05-07T14:02:53;2.10;;;1.92;;
22965;SDS011;11649;48.090;9.754;2023-05-07T14:05:21;2.08;;;1.80;;
22965;SDS011;11649;48.090;9.754;2023-05-07T14:07:52;3.47;;;1.50;;
22965;SDS011;11649;48.090;9.754;2023-05-07T14:10:19;3.38;;;1.85;;
22965;SDS011;11649;48.090;9.754;2023-05-07T14:12:46;2.50;;;2.00;;
22965;SDS011;11649;48.090;9.754;2023-05-07T14:15:13;2.47;;;1.90;;
22965;SDS011;11649;48.090;9.754;2023-05-07T14:17:40;3.53;;;2.30;;
22965;SDS011;11649;48.090;9.754;2023-05-07T14:20:08;2.83;;;2.10;;
22965;SDS011;11649;48.090;9.754;2023-05-07T14:22:35;4.45;;;2.67;;
22965;SDS011;11649;48.090;9.754;2023-05-07T14:25:02;4.03;;;2.60;;
22965;SDS011;11649;48.090;9.754;2023-05-07T14:27:32;3.15;;;2.17;;
22965;SDS011;11649;48.090;9.754;2023-05-07T14:29:59;5.57;;;3.10;;
22965;SDS011;11649;48.090;9.754;2023-05-07T14:32:26;3.40;;;2.70;;
22965;SDS011;11649;48.090;9.754;2023-05-07T14:34:52;3.05;;;2.67;;
22965;SDS011;11649;48.090;9.754;2023-05-07T14:37:19;3.25;;;2.30;;
22965;SDS011;11649;48.090;9.754;2023-05-07T14:39:46;4.50;;;2.70;;
22965;SDS011;11649;48.090;9.754;2023-05-07T14:42:16;2.60;;;2.30;;
22965;SDS011;11649;48.090;9.754;2023-05-07T14:44:43;2.67;;;2.47;;
22965;SDS011;11649;48.090;9.754;2023-05-07T14:47:11;3.10;;;2.67;;
22965;SDS011;11649;48.090;9.754;2023-05-07T14:49:38;3.20;;;2.67;;
22965;SDS011;11649;48.090;9.754;2023-05-07T14:52:06;32.55;;;2.88;;
22965;SDS011;11649;48.090;9.754;2023-05-07T14:54:36;5.60;;;1.60;;
22965;SDS011;11649;48.090;9.754;2023-05-07T14:57:05;5.10;;;1.70;;
22965;SDS011;11649;48.090;9.754;2023-05-07T14:59:32;20.33;;;2.20;;
22965;SDS011;11649;48.090;9.754;2023-05-07T15:01:59;5.13;;;1.95;;
22965;SDS011;11649;48.090;9.754;2023-05-07T15:04:28;2.22;;;1.55;;
22965;SDS011;11649;48.090;9.754;2023-05-07T15:06:55;2.08;;;1.17;;
22965;SDS011;11649;48.090;9.754;2023-05-07T15:09:22;1.35;;;1.00;;
22965;SDS011;11649;48.090;9.754;2023-05-07T15:11:49;7.63;;;1.30;;
22965;SDS011;11649;48.090;9.754;2023-05-07T15:14:15;2.25;;;1.13;;
22965;SDS011;11649;48.090;9.754;2023-05-07T15:16:42;4.07;;;1.60;;
22965;SDS011;11649;48.090;9.754;2023-05-07T15:19:09;6.30;;;2.10;;
22965;SDS011;11649;48.090;9.754;2023-05-07T15:21:36;8.43;;;2.58;;